Svartfoss — V2PR3 — position and weather

sailwx.info

Track history (hours):
 
Tides and Currents Weather Stations Pressure Air Temp Water Temp Dewpoint Dewpoint Depression Visibility Wind Speed Wind Dir Waves Ship Positions

Svartfoss

Last reported at 2014-Sep-01 13:32 UTC. Time now 2014-Sep-01 14:00 UTC.
Position N 52°28' E 004°40'.

Length 80 m; draft 5.4 m.

Type: Cargo ship. MMSI: 304882000.

Date/timePositionNaut miles runAvg speedWind from/ knotsBaromVisibWave heightAir tempDewpointWater temp
2014-Sep-01 13:32N 52°28' E 004°40'0 0.0
2014-Sep-01 12:32N 52°28' E 004°40'0 0.0
2014-Sep-01 11:32N 52°28' E 004°40'0 0.0
2014-Sep-01 10:32N 52°28' E 004°40'0 0.0
2014-Sep-01 09:32N 52°28' E 004°40'0 0.0
2014-Sep-01 08:32N 52°28' E 004°40'0 0.0
2014-Sep-01 07:32N 52°28' E 004°40'0 0.0
2014-Sep-01 06:29N 52°28' E 004°40'0 0.0
2014-Sep-01 05:31N 52°28' E 004°40'0 0.0
2014-Sep-01 04:31N 52°28' E 004°40'0 0.0
2014-Sep-01 03:31N 52°28' E 004°40'0 0.0
2014-Sep-01 02:28N 52°28' E 004°40'0 0.0
2014-Sep-01 01:31N 52°28' E 004°40'0 0.0
2014-Sep-01 00:31N 52°28' E 004°40'0 0.0
2014-Aug-31 23:31N 52°28' E 004°40'0 0.0
2014-Aug-31 22:31N 52°28' E 004°40'0 0.0
2014-Aug-31 21:31N 52°28' E 004°40'0 0.0
2014-Aug-31 20:31N 52°28' E 004°40'0 0.0
2014-Aug-31 19:31N 52°28' E 004°40'0 0.0
2014-Aug-31 18:31N 52°28' E 004°40'0 0.0
2014-Aug-31 17:31N 52°28' E 004°40'0 0.0
2014-Aug-31 16:31N 52°28' E 004°40'3 3.0
2014-Aug-31 15:33N 52°28' E 004°35'9 9.3
2014-Aug-31 14:33N 52°37' E 004°29'1313.0
2014-Aug-31 13:33N 52°50' E 004°31'35614.0
2014-Aug-30 12:13N 58°44' E 005°19'912.8
2014-Aug-30 11:33N 58°53' E 005°19'1413.9
2014-Aug-30 10:33N 59°07' E 005°18'2 2.2
2014-Aug-30 09:33N 59°09' E 005°16'0 0.4
2014-Aug-30 08:33N 59°08' E 005°17'1212.2
2014-Aug-30 07:33N 59°21' E 005°19'233 5.3
2014-Aug-28 11:15N 63°06' E 007°30'13511.1
2014-Aug-27 23:05N 64°44' E 010°58'714.0
2014-Aug-27 22:33N 64°50' E 011°10'1312.8
2014-Aug-27 21:33N 64°58' E 011°33'1413.6
2014-Aug-27 20:30N 65°10' E 011°51'6613.3
2014-Aug-27 15:31N 66°14' E 012°35'1413.2
2014-Aug-27 14:29N 66°22' E 012°07'8 8.5
2014-Aug-27 13:33N 66°30' E 012°05'0 0.0
2014-Aug-27 12:33N 66°30' E 012°05'0 0.0
2014-Aug-27 11:33N 66°30' E 012°05'1 0.7
2014-Aug-27 10:33N 66°30' E 012°06'0 0.0
2014-Aug-27 09:33N 66°30' E 012°06'4 3.6
2014-Aug-27 08:30N 66°31' E 012°16'233 5.2
2014-Aug-25 11:32N 69°33' E 018°45'8 7.7
2014-Aug-25 10:33N 69°39' E 018°58'0 0.0
2014-Aug-25 09:33N 69°39' E 018°58'0 0.0
2014-Aug-25 08:33N 69°39' E 018°58'0 0.0
2014-Aug-25 07:33N 69°39' E 018°58'0 0.0
2014-Aug-25 06:33N 69°39' E 018°58'0 0.0
2014-Aug-25 05:33N 69°39' E 018°58'1 0.6
2014-Aug-25 04:33N 69°40' E 018°60'2 2.2
2014-Aug-25 03:33N 69°38' E 018°57'0 0.0
2014-Aug-25 02:33N 69°38' E 018°57'0 0.0
2014-Aug-25 01:33N 69°38' E 018°57'2 1.9
2014-Aug-25 00:33N 69°39' E 018°59'10611.5
2014-Aug-24 15:22N 70°37' E 023°19'7 3.5
2014-Aug-24 13:12N 70°40' E 023°40'0 0.5
2014-Aug-24 12:30N 70°40' E 023°39'  
Track history (hours):
 
Tides and Currents Weather Stations Pressure Air Temp Water Temp Dewpoint Dewpoint Depression Visibility Wind Speed Wind Dir Waves Ship Positions

Svartfoss

Last reported at 2014-Sep-01 13:32 UTC. Time now 2014-Sep-01 14:00 UTC.
Position N 52°28' E 004°40'.

Length 80 m; draft 5.4 m.

Type: Cargo ship. MMSI: 304882000.

Date/timePositionNaut miles runAvg speedWind from/ knotsBaromVisibWave heightAir tempDewpointWater temp
2014-Sep-01 13:32N 52°28' E 004°40'0 0.0
2014-Sep-01 12:32N 52°28' E 004°40'0 0.0
2014-Sep-01 11:32N 52°28' E 004°40'0 0.0
2014-Sep-01 10:32N 52°28' E 004°40'0 0.0
2014-Sep-01 09:32N 52°28' E 004°40'0 0.0
2014-Sep-01 08:32N 52°28' E 004°40'0 0.0
2014-Sep-01 07:32N 52°28' E 004°40'0 0.0
2014-Sep-01 06:29N 52°28' E 004°40'0 0.0
2014-Sep-01 05:31N 52°28' E 004°40'0 0.0
2014-Sep-01 04:31N 52°28' E 004°40'0 0.0
2014-Sep-01 03:31N 52°28' E 004°40'0 0.0
2014-Sep-01 02:28N 52°28' E 004°40'0 0.0
2014-Sep-01 01:31N 52°28' E 004°40'0 0.0
2014-Sep-01 00:31N 52°28' E 004°40'0 0.0
2014-Aug-31 23:31N 52°28' E 004°40'0 0.0
2014-Aug-31 22:31N 52°28' E 004°40'0 0.0
2014-Aug-31 21:31N 52°28' E 004°40'0 0.0
2014-Aug-31 20:31N 52°28' E 004°40'0 0.0
2014-Aug-31 19:31N 52°28' E 004°40'0 0.0
2014-Aug-31 18:31N 52°28' E 004°40'0 0.0
2014-Aug-31 17:31N 52°28' E 004°40'0 0.0
2014-Aug-31 16:31N 52°28' E 004°40'3 3.0
2014-Aug-31 15:33N 52°28' E 004°35'9 9.3
2014-Aug-31 14:33N 52°37' E 004°29'1313.0
2014-Aug-31 13:33N 52°50' E 004°31'35614.0
2014-Aug-30 12:13N 58°44' E 005°19'912.8
2014-Aug-30 11:33N 58°53' E 005°19'1413.9
2014-Aug-30 10:33N 59°07' E 005°18'2 2.2
2014-Aug-30 09:33N 59°09' E 005°16'0 0.4
2014-Aug-30 08:33N 59°08' E 005°17'1212.2
2014-Aug-30 07:33N 59°21' E 005°19'233 5.3
2014-Aug-28 11:15N 63°06' E 007°30'13511.1
2014-Aug-27 23:05N 64°44' E 010°58'714.0
2014-Aug-27 22:33N 64°50' E 011°10'1312.8
2014-Aug-27 21:33N 64°58' E 011°33'1413.6
2014-Aug-27 20:30N 65°10' E 011°51'6613.3
2014-Aug-27 15:31N 66°14' E 012°35'1413.2
2014-Aug-27 14:29N 66°22' E 012°07'8 8.5
2014-Aug-27 13:33N 66°30' E 012°05'0 0.0
2014-Aug-27 12:33N 66°30' E 012°05'0 0.0
2014-Aug-27 11:33N 66°30' E 012°05'1 0.7
2014-Aug-27 10:33N 66°30' E 012°06'0 0.0
2014-Aug-27 09:33N 66°30' E 012°06'4 3.6
2014-Aug-27 08:30N 66°31' E 012°16'233 5.2
2014-Aug-25 11:32N 69°33' E 018°45'8 7.7
2014-Aug-25 10:33N 69°39' E 018°58'0 0.0
2014-Aug-25 09:33N 69°39' E 018°58'0 0.0
2014-Aug-25 08:33N 69°39' E 018°58'0 0.0
2014-Aug-25 07:33N 69°39' E 018°58'0 0.0
2014-Aug-25 06:33N 69°39' E 018°58'0 0.0
2014-Aug-25 05:33N 69°39' E 018°58'1 0.6
2014-Aug-25 04:33N 69°40' E 018°60'2 2.2
2014-Aug-25 03:33N 69°38' E 018°57'0 0.0
2014-Aug-25 02:33N 69°38' E 018°57'0 0.0
2014-Aug-25 01:33N 69°38' E 018°57'2 1.9
2014-Aug-25 00:33N 69°39' E 018°59'10611.5
2014-Aug-24 15:22N 70°37' E 023°19'7 3.5
2014-Aug-24 13:12N 70°40' E 023°40'0 0.5
2014-Aug-24 12:30N 70°40' E 023°39'  

Dump ship's entire track history